createdAt,value
2018-04-23T00:00:18.229Z,4.80
2018-04-23T00:02:50.888Z,5.00
2018-04-23T00:05:23.491Z,5.50
2018-04-23T00:07:56.112Z,5.07
2018-04-23T00:10:28.715Z,5.67
2018-04-23T00:13:01.351Z,5.20
2018-04-23T00:15:33.944Z,5.53
2018-04-23T00:18:06.591Z,5.27
2018-04-23T00:20:39.191Z,5.30
2018-04-23T00:23:11.827Z,5.13
2018-04-23T00:25:44.426Z,5.27
2018-04-23T00:28:17.062Z,5.33
2018-04-23T00:30:50.420Z,5.37
2018-04-23T00:33:23.035Z,5.20
2018-04-23T00:35:55.636Z,5.83
2018-04-23T00:38:28.260Z,5.70
2018-04-23T00:41:00.862Z,5.70
2018-04-23T00:43:33.495Z,5.60
2018-04-23T00:46:06.859Z,5.40
2018-04-23T00:48:39.472Z,5.20
2018-04-23T00:51:12.079Z,4.93
2018-04-23T00:53:44.690Z,5.33
2018-04-23T00:56:17.290Z,5.83
2018-04-23T00:58:49.942Z,5.40
2018-04-23T01:01:23.307Z,5.47
2018-04-23T01:03:55.939Z,5.07
2018-04-23T01:06:28.531Z,5.13
2018-04-23T01:09:01.156Z,5.47
2018-04-23T01:11:33.750Z,5.33
2018-04-23T01:14:06.401Z,5.53
2018-04-23T01:16:39.002Z,5.40
2018-04-23T01:19:12.387Z,5.67
2018-04-23T01:21:44.987Z,5.90
2018-04-23T01:24:17.603Z,5.50
2018-04-23T01:26:50.202Z,5.83
2018-04-23T01:29:22.843Z,6.17
2018-04-23T01:31:55.448Z,6.23
2018-04-23T01:34:28.857Z,5.93
2018-04-23T01:37:02.224Z,5.67
2018-04-23T01:39:34.844Z,5.70
2018-04-23T01:42:07.451Z,5.80
2018-04-23T01:44:40.091Z,5.60
2018-04-23T01:47:12.780Z,5.30
2018-04-23T01:49:45.418Z,5.80
2018-04-23T01:52:17.986Z,6.10
2018-04-23T01:54:50.611Z,6.60
2018-04-23T01:57:23.215Z,6.73
2018-04-23T01:59:56.626Z,6.27
2018-04-23T02:02:29.224Z,5.60
2018-04-23T02:05:01.856Z,6.07
2018-04-23T02:07:35.228Z,5.80
2018-04-23T02:10:07.848Z,5.93
2018-04-23T02:12:40.457Z,5.70
2018-04-23T02:15:13.100Z,6.20
2018-04-23T02:17:45.702Z,5.63
2018-04-23T02:20:18.347Z,6.40
2018-04-23T02:22:50.990Z,5.20
2018-04-23T02:25:23.599Z,6.23
2018-04-23T02:27:56.211Z,6.00
2018-04-23T02:30:29.595Z,6.00
2018-04-23T02:33:02.200Z,6.97
2018-04-23T02:35:34.835Z,5.80
2018-04-23T02:38:07.443Z,6.30
2018-04-23T02:40:40.832Z,5.80
2018-04-23T02:43:13.437Z,6.33
2018-04-23T02:45:46.078Z,6.30
2018-04-23T02:48:18.692Z,5.50
2018-04-23T02:50:51.326Z,6.70
2018-04-23T02:53:23.922Z,5.87
2018-04-23T02:55:56.531Z,6.93
2018-04-23T02:58:29.144Z,6.93
2018-04-23T03:01:01.792Z,6.87
2018-04-23T03:03:35.155Z,6.23
2018-04-23T03:06:07.800Z,6.83
2018-04-23T03:08:40.403Z,6.40
2018-04-23T03:11:13.032Z,6.97
2018-04-23T03:13:46.399Z,6.47
2018-04-23T03:16:19.043Z,6.83
2018-04-23T03:18:51.655Z,6.60
2018-04-23T03:21:24.294Z,6.60
2018-04-23T03:23:56.890Z,6.10
2018-04-23T03:26:29.503Z,6.17
2018-04-23T03:29:02.093Z,6.83
2018-04-23T03:31:34.731Z,6.40
2018-04-23T03:34:07.336Z,6.80
2018-04-23T03:36:39.974Z,6.77
2018-04-23T03:39:12.586Z,6.87
2018-04-23T03:41:45.969Z,7.17
2018-04-23T03:44:18.578Z,7.33
2018-04-23T03:46:51.206Z,6.83
2018-04-23T03:49:23.800Z,6.17
2018-04-23T03:51:56.440Z,7.57
2018-04-23T03:54:29.043Z,7.43
2018-04-23T03:57:02.433Z,7.17
2018-04-23T03:59:35.036Z,7.77
2018-04-23T04:02:07.676Z,8.40
2018-04-23T04:04:40.285Z,7.80
2018-04-23T04:07:12.938Z,7.30
2018-04-23T04:09:45.546Z,7.90
2018-04-23T04:12:29.959Z,7.37
2018-04-23T04:15:14.349Z,8.27
2018-04-23T04:21:10.376Z,8.33
2018-04-23T04:23:42.985Z,7.40
2018-04-23T04:26:15.584Z,8.70
2018-04-23T04:28:48.196Z,9.07
2018-04-23T04:31:20.812Z,9.33
2018-04-23T04:33:53.429Z,9.03
2018-04-23T04:36:26.028Z,8.33
2018-04-23T04:38:58.652Z,9.43
2018-04-23T04:41:31.254Z,10.57
2018-04-23T04:44:03.886Z,10.00
2018-04-23T04:46:37.404Z,9.07
2018-04-23T04:49:10.095Z,9.00
2018-04-23T04:51:42.764Z,8.87
2018-04-23T04:54:15.398Z,8.37
2018-04-23T04:56:48.002Z,8.57
2018-04-23T04:59:20.650Z,8.80
2018-04-23T05:01:53.233Z,8.77
2018-04-23T05:04:26.619Z,8.53
2018-04-23T05:06:59.211Z,8.40
2018-04-23T05:09:31.847Z,8.77
2018-04-23T05:12:04.446Z,8.80
2018-04-23T05:14:37.075Z,8.30
2018-04-23T05:17:10.431Z,8.00
2018-04-23T05:19:43.087Z,7.63
2018-04-23T05:22:15.691Z,8.00
2018-04-23T05:24:48.323Z,7.97
2018-04-23T05:27:20.911Z,8.13
2018-04-23T05:29:54.333Z,7.83
2018-04-23T05:32:26.940Z,7.67
2018-04-23T05:35:00.319Z,7.77
2018-04-23T05:37:32.978Z,7.37
2018-04-23T05:40:06.339Z,7.87
2018-04-23T05:42:38.975Z,7.47
2018-04-23T05:45:12.389Z,7.37
2018-04-23T05:47:45.007Z,7.13
2018-04-23T05:50:17.624Z,7.67
2018-04-23T05:52:51.014Z,8.57
2018-04-23T05:55:23.647Z,7.17
2018-04-23T05:57:56.249Z,6.83
2018-04-23T06:00:29.630Z,8.00
2018-04-23T06:03:02.245Z,7.77
2018-04-23T06:05:34.883Z,7.43
2018-04-23T06:08:08.240Z,6.90
2018-04-23T06:10:40.860Z,7.43
2018-04-23T06:13:13.454Z,7.40
2018-04-23T06:15:46.832Z,6.43
2018-04-23T06:18:20.198Z,7.13
2018-04-23T06:20:52.832Z,6.77
2018-04-23T06:23:25.430Z,6.93
2018-04-23T06:25:58.248Z,6.90
2018-04-23T06:28:30.846Z,6.73
2018-04-23T06:31:03.474Z,6.60
2018-04-23T06:33:36.070Z,6.33
2018-04-23T06:36:08.684Z,6.50
2018-04-23T06:38:41.279Z,7.20
2018-04-23T06:41:13.909Z,6.00
2018-04-23T06:43:47.271Z,7.00
2018-04-23T06:46:19.893Z,7.20
2018-04-23T06:48:52.490Z,6.77
2018-04-23T06:51:25.110Z,7.43
2018-04-23T06:53:57.699Z,7.00
2018-04-23T06:56:30.325Z,7.27
2018-04-23T06:59:02.979Z,7.50
2018-04-23T07:01:36.350Z,7.20
2018-04-23T07:04:08.951Z,6.23
2018-04-23T07:06:41.567Z,7.57
2018-04-23T07:09:14.163Z,7.03
2018-04-23T07:11:46.789Z,7.63
2018-04-23T07:14:20.150Z,7.50
2018-04-23T07:16:56.967Z,7.50
2018-04-23T07:19:29.561Z,7.43
2018-04-23T07:22:02.211Z,8.20
2018-04-23T07:24:34.815Z,7.27
2018-04-23T07:27:07.431Z,6.93
2018-04-23T07:29:40.040Z,7.30
2018-04-23T07:32:13.428Z,7.03
2018-04-23T07:34:46.032Z,6.60
2018-04-23T07:37:18.656Z,7.87
2018-04-23T07:39:51.270Z,7.60
2018-04-23T07:42:23.892Z,7.90
2018-04-23T07:44:56.504Z,7.33
2018-04-23T07:47:29.144Z,6.80
2018-04-23T07:50:01.745Z,6.80
2018-04-23T07:52:34.384Z,7.00
2018-04-23T07:55:07.745Z,7.10
2018-04-23T07:57:40.374Z,7.13
2018-04-23T08:00:12.966Z,7.23
2018-04-23T08:02:45.582Z,6.50
2018-04-23T08:05:18.195Z,6.63
2018-04-23T08:07:50.809Z,6.80
2018-04-23T08:10:23.404Z,5.63
2018-04-23T08:12:56.053Z,6.53
2018-04-23T08:15:28.660Z,6.63
2018-04-23T08:18:01.279Z,6.43
2018-04-23T08:20:33.889Z,7.10
2018-04-23T08:23:07.300Z,7.40
2018-04-23T08:25:39.891Z,6.00
2018-04-23T08:28:12.529Z,5.27
2018-04-23T08:30:45.137Z,6.00
2018-04-23T08:33:17.768Z,5.93
2018-04-23T08:35:50.371Z,6.40
2018-04-23T08:38:23.775Z,5.60
2018-04-23T08:40:57.190Z,5.73
2018-04-23T08:43:30.596Z,5.43
2018-04-23T08:46:03.234Z,5.10
2018-04-23T08:48:35.862Z,4.97
2018-04-23T08:51:08.475Z,4.40
2018-04-23T08:53:41.873Z,3.80
2018-04-23T08:56:14.480Z,4.10
2018-04-23T08:58:47.137Z,3.10
2018-04-23T09:01:19.745Z,3.40
2018-04-23T09:03:52.361Z,3.43
2018-04-23T09:06:24.988Z,3.70
2018-04-23T09:08:57.608Z,2.90
2018-04-23T09:11:30.257Z,2.83
2018-04-23T09:14:02.918Z,3.10
2018-04-23T09:16:36.299Z,3.70
2018-04-23T09:19:08.945Z,3.67
2018-04-23T09:21:41.536Z,3.87
2018-04-23T09:24:14.174Z,4.30
2018-04-23T09:26:46.782Z,4.23
2018-04-23T09:29:19.417Z,4.20
2018-04-23T09:31:52.091Z,4.10
2018-04-23T09:34:24.724Z,4.37
2018-04-23T09:36:57.375Z,5.23
2018-04-23T09:39:29.996Z,5.03
2018-04-23T09:42:02.605Z,5.10
2018-04-23T09:44:35.271Z,5.30
2018-04-23T09:47:07.883Z,4.40
2018-04-23T09:49:40.535Z,4.40
2018-04-23T09:52:13.137Z,5.20
2018-04-23T09:54:45.767Z,5.43
2018-04-23T09:57:18.361Z,5.03
2018-04-23T09:59:50.990Z,5.43
2018-04-23T10:02:23.586Z,5.23
2018-04-23T10:04:56.209Z,5.13
2018-04-23T10:07:28.807Z,5.50
2018-04-23T10:10:01.458Z,6.03
2018-04-23T10:12:34.080Z,7.00
2018-04-23T10:15:06.691Z,6.03
2018-04-23T10:17:39.299Z,6.17
2018-04-23T10:20:11.931Z,6.80
2018-04-23T10:22:44.528Z,7.13
2018-04-23T10:25:17.188Z,6.60
2018-04-23T10:27:49.787Z,6.80
2018-04-23T10:30:23.178Z,6.80
2018-04-23T10:32:55.787Z,6.57
2018-04-23T10:35:28.447Z,7.10
2018-04-23T10:38:01.054Z,7.27
2018-04-23T10:40:33.695Z,7.10
2018-04-23T10:43:06.320Z,5.57
2018-04-23T10:45:38.998Z,5.60
2018-04-23T10:48:11.617Z,5.50
2018-04-23T10:50:44.255Z,5.13
2018-04-23T10:53:16.847Z,5.43
2018-04-23T10:55:49.466Z,5.27
2018-04-23T10:58:22.064Z,4.90
2018-04-23T11:00:54.702Z,5.33
2018-04-23T11:03:28.104Z,5.57
2018-04-23T11:06:00.742Z,5.20
2018-04-23T11:08:33.334Z,5.10
2018-04-23T11:11:05.969Z,5.67
2018-04-23T11:13:38.579Z,5.80
2018-04-23T11:16:11.223Z,6.07
2018-04-23T11:18:43.825Z,5.87
2018-04-23T11:21:16.471Z,6.43
2018-04-23T11:23:49.128Z,5.77
2018-04-23T11:26:22.588Z,6.10
2018-04-23T11:28:55.190Z,6.40
2018-04-23T11:31:27.850Z,6.07
2018-04-23T11:34:00.455Z,7.30
2018-04-23T11:36:33.089Z,6.07
2018-04-23T11:39:06.600Z,7.10
2018-04-23T11:41:39.270Z,6.43
2018-04-23T11:44:11.893Z,6.90
2018-04-23T11:46:44.512Z,7.33
2018-04-23T11:49:17.119Z,6.93
2018-04-23T11:51:49.743Z,6.93
2018-04-23T11:54:22.343Z,6.63
2018-04-23T11:56:54.967Z,7.43
2018-04-23T11:59:28.331Z,6.83
2018-04-23T12:02:00.988Z,6.20
2018-04-23T12:04:33.635Z,6.67
2018-04-23T12:07:06.259Z,7.50
2018-04-23T12:09:38.857Z,6.97
2018-04-23T12:12:11.480Z,7.63
2018-04-23T12:14:44.094Z,6.83
2018-04-23T12:17:16.732Z,6.57
2018-04-23T12:19:49.336Z,7.97
2018-04-23T12:22:21.981Z,7.50
2018-04-23T12:24:55.530Z,7.57
2018-04-23T12:27:28.184Z,8.27
2018-04-23T12:30:00.774Z,7.50
2018-04-23T12:32:33.415Z,7.10
2018-04-23T12:35:06.014Z,7.10
2018-04-23T12:37:38.632Z,5.77
2018-04-23T12:40:11.242Z,5.97
2018-04-23T12:42:43.883Z,6.50
2018-04-23T12:45:16.502Z,5.90
2018-04-23T12:47:49.146Z,6.40
2018-04-23T12:50:21.767Z,6.03
2018-04-23T12:52:54.411Z,5.10
2018-04-23T12:55:27.794Z,5.63
2018-04-23T12:58:00.425Z,4.80
2018-04-23T13:00:33.027Z,4.27
2018-04-23T13:03:05.662Z,4.90
2018-04-23T13:05:38.314Z,4.50
2018-04-23T13:08:10.939Z,4.87
2018-04-23T13:10:43.552Z,4.70
2018-04-23T13:13:16.177Z,5.37
2018-04-23T13:15:48.820Z,3.93
2018-04-23T13:18:21.527Z,4.60
2018-04-23T13:20:54.131Z,4.00
2018-04-23T13:23:27.623Z,4.80
2018-04-23T13:26:00.218Z,4.63
2018-04-23T13:28:32.838Z,3.90
2018-04-23T13:31:05.468Z,3.70
2018-04-23T13:33:38.206Z,3.57
2018-04-23T13:36:10.807Z,3.53
2018-04-23T13:38:43.435Z,4.57
2018-04-23T13:41:16.042Z,3.87
2018-04-23T13:43:48.832Z,4.10
2018-04-23T13:46:21.440Z,4.63
2018-04-23T13:48:54.064Z,4.90
2018-04-23T13:51:27.442Z,4.30
2018-04-23T13:54:00.067Z,3.80
2018-04-23T13:56:32.661Z,3.20
2018-04-23T13:59:05.283Z,3.50
2018-04-23T14:01:37.879Z,3.43
2018-04-23T14:04:10.488Z,3.80
2018-04-23T14:06:43.088Z,3.57
2018-04-23T14:09:15.714Z,3.87
2018-04-23T14:11:48.379Z,3.90
2018-04-23T14:14:21.023Z,5.00
2018-04-23T14:16:53.624Z,4.40
2018-04-23T14:19:26.230Z,5.43
2018-04-23T14:21:58.829Z,4.83
2018-04-23T14:24:31.442Z,4.50
2018-04-23T14:27:04.033Z,3.30
2018-04-23T14:29:36.676Z,3.23
2018-04-23T14:32:09.281Z,2.77
2018-04-23T14:34:42.000Z,3.07
2018-04-23T14:37:14.674Z,2.83
2018-04-23T14:39:47.295Z,2.50
2018-04-23T14:42:19.895Z,2.57
2018-04-23T14:44:52.519Z,2.60
2018-04-23T14:47:25.164Z,2.43
2018-04-23T14:49:57.783Z,2.47
2018-04-23T14:52:31.178Z,2.37
2018-04-23T14:55:03.791Z,2.53
2018-04-23T14:57:37.175Z,3.03
2018-04-23T15:00:09.898Z,2.70
2018-04-23T15:02:42.627Z,2.60
2018-04-23T15:05:15.291Z,2.57
2018-04-23T15:07:47.892Z,3.00
2018-04-23T15:10:20.537Z,2.50
2018-04-23T15:12:53.163Z,2.23
2018-04-23T15:15:25.802Z,2.33
2018-04-23T15:17:58.427Z,2.30
2018-04-23T15:20:31.097Z,2.20
2018-04-23T15:23:03.712Z,2.03
2018-04-23T15:25:36.324Z,2.10
2018-04-23T15:28:08.936Z,2.27
2018-04-23T15:30:41.572Z,2.10
2018-04-23T15:33:14.162Z,2.43
2018-04-23T15:35:46.773Z,2.33
2018-04-23T15:38:20.154Z,2.40
2018-04-23T15:40:52.840Z,3.20
2018-04-23T15:43:26.087Z,3.40
2018-04-23T15:45:58.706Z,3.93
2018-04-23T15:48:31.325Z,3.83
2018-04-23T15:51:03.944Z,3.23
2018-04-23T15:53:37.319Z,3.63
2018-04-23T15:56:09.943Z,3.73
2018-04-23T15:58:42.611Z,4.13
2018-04-23T16:01:15.236Z,4.40
2018-04-23T16:03:48.601Z,3.27
2018-04-23T16:06:21.255Z,3.80
2018-04-23T16:08:53.850Z,4.90
2018-04-23T16:11:26.471Z,4.90
2018-04-23T16:13:59.100Z,4.93
2018-04-23T16:16:31.738Z,5.10
2018-04-23T16:19:04.391Z,4.87
2018-04-23T16:21:37.002Z,5.20
2018-04-23T16:24:09.599Z,5.30
2018-04-23T16:26:42.234Z,5.90
2018-04-23T16:29:14.860Z,6.10
2018-04-23T16:31:47.554Z,5.67
2018-04-23T16:34:20.157Z,5.20
2018-04-23T16:36:53.566Z,6.03
2018-04-23T16:39:26.174Z,6.03
2018-04-23T16:41:59.174Z,5.73
2018-04-23T16:44:31.778Z,5.23
2018-04-23T16:47:04.427Z,5.53
2018-04-23T16:49:37.080Z,5.67
2018-04-23T16:52:09.705Z,6.47
2018-04-23T16:54:43.045Z,6.27
2018-04-23T16:57:15.706Z,6.80
2018-04-23T16:59:48.350Z,6.93
2018-04-23T17:02:20.999Z,7.07
2018-04-23T17:04:53.618Z,8.30
2018-04-23T17:07:26.277Z,9.20
2018-04-23T17:09:58.969Z,10.40
2018-04-23T17:12:32.367Z,10.77
2018-04-23T17:15:04.971Z,10.60
2018-04-23T17:17:37.602Z,10.00
2018-04-23T17:20:10.253Z,10.23
2018-04-23T17:22:44.652Z,12.53
2018-04-23T17:25:17.257Z,12.43
2018-04-23T17:27:49.894Z,12.37
2018-04-23T17:30:22.498Z,12.13
2018-04-23T17:32:55.168Z,12.23
2018-04-23T17:35:27.795Z,12.20
2018-04-23T17:38:00.426Z,11.40
2018-04-23T17:40:33.080Z,10.97
2018-04-23T17:43:05.683Z,11.30
2018-04-23T17:45:38.315Z,12.07
2018-04-23T17:48:10.917Z,10.97
2018-04-23T17:50:43.564Z,11.00
2018-04-23T17:53:16.173Z,9.87
2018-04-23T17:55:48.795Z,11.07
2018-04-23T17:58:21.400Z,9.90
2018-04-23T18:00:54.040Z,10.70
2018-04-23T18:03:26.698Z,10.20
2018-04-23T18:05:59.321Z,10.53
2018-04-23T18:08:31.924Z,9.17
2018-04-23T18:11:04.624Z,9.53
2018-04-23T18:13:37.222Z,9.93
2018-04-23T18:16:09.907Z,8.60
2018-04-23T18:18:43.288Z,8.93
2018-04-23T18:21:15.932Z,9.00
2018-04-23T18:23:48.543Z,8.10
2018-04-23T18:26:21.178Z,8.83
2018-04-23T18:28:53.775Z,9.10
2018-04-23T18:31:26.474Z,7.87
2018-04-23T18:33:59.039Z,7.40
2018-04-23T18:36:31.667Z,7.40
2018-04-23T18:39:04.272Z,7.93
2018-04-23T18:41:36.953Z,8.43
2018-04-23T18:44:10.333Z,8.90
2018-04-23T18:46:43.943Z,8.47
2018-04-23T18:49:16.552Z,7.03
2018-04-23T18:51:49.946Z,7.73
2018-04-23T18:54:22.548Z,7.67
2018-04-23T18:56:55.202Z,7.47
2018-04-23T18:59:27.806Z,7.23
2018-04-23T19:02:00.442Z,7.23
2018-04-23T19:04:33.825Z,6.67
2018-04-23T19:07:06.468Z,6.83
2018-04-23T19:09:39.086Z,7.67
2018-04-23T19:12:11.715Z,6.40
2018-04-23T19:14:45.087Z,6.33
2018-04-23T19:17:17.720Z,7.03
2018-04-23T19:19:51.089Z,6.33
2018-04-23T19:22:23.727Z,6.40
2018-04-23T19:24:57.201Z,6.20
2018-04-23T19:27:29.852Z,6.90
2018-04-23T19:30:02.482Z,7.27
2018-04-23T19:32:35.115Z,5.70
2018-04-23T19:35:08.490Z,6.27
2018-04-23T19:37:41.129Z,5.77
2018-04-23T19:40:13.735Z,6.13
2018-04-23T19:42:47.259Z,5.93
2018-04-23T19:45:19.875Z,6.37
2018-04-23T19:47:52.537Z,6.23
2018-04-23T19:50:25.147Z,6.33
2018-04-23T19:52:57.774Z,6.30
2018-04-23T19:55:30.379Z,5.70
2018-04-23T19:58:03.092Z,6.07
2018-04-23T20:00:35.796Z,6.17
2018-04-23T20:03:08.503Z,7.00
2018-04-23T20:05:41.160Z,6.23
2018-04-23T20:08:18.192Z,6.60
2018-04-23T20:10:50.815Z,6.77
2018-04-23T20:13:23.496Z,6.37
2018-04-23T20:15:56.393Z,6.03
2018-04-23T20:18:29.046Z,6.13
2018-04-23T20:21:01.667Z,6.30
2018-04-23T20:23:34.326Z,6.23
2018-04-23T20:26:06.933Z,6.97
2018-04-23T20:28:39.585Z,6.73
2018-04-23T20:31:12.946Z,6.70
2018-04-23T20:33:45.577Z,6.83
2018-04-23T20:36:18.939Z,6.77
2018-04-23T20:38:51.571Z,7.27
2018-04-23T20:41:24.180Z,6.73
2018-04-23T20:43:56.820Z,8.27
2018-04-23T20:46:29.414Z,7.57
2018-04-23T20:49:02.040Z,7.67
2018-04-23T20:51:35.417Z,8.53
2018-04-23T20:54:08.060Z,8.10
2018-04-23T20:56:40.663Z,8.90
2018-04-23T20:59:13.279Z,8.03
2018-04-23T21:01:45.882Z,8.30
2018-04-23T21:04:18.515Z,8.57
2018-04-23T21:06:51.875Z,8.47
2018-04-23T21:09:24.539Z,8.07
2018-04-23T21:11:57.147Z,9.10
2018-04-23T21:14:29.782Z,8.67
2018-04-23T21:17:03.171Z,8.20
2018-04-23T21:19:35.797Z,7.80
2018-04-23T21:22:09.157Z,8.03
2018-04-23T21:24:41.794Z,6.93
2018-04-23T21:27:15.167Z,6.57
2018-04-23T21:29:47.802Z,6.90
2018-04-23T21:32:20.403Z,6.23
2018-04-23T21:34:53.058Z,7.00
2018-04-23T21:37:25.652Z,5.93
2018-04-23T21:39:58.281Z,6.33
2018-04-23T21:42:30.890Z,5.90
2018-04-23T21:45:03.512Z,5.20
2018-04-23T21:47:36.119Z,6.50
2018-04-23T21:50:08.737Z,5.20
2018-04-23T21:52:41.386Z,4.97
2018-04-23T21:55:14.023Z,4.83
2018-04-23T21:57:47.383Z,4.50
2018-04-23T22:00:20.017Z,4.70
2018-04-23T22:02:52.618Z,5.13
2018-04-23T22:05:25.306Z,5.60
2018-04-23T22:07:57.975Z,6.13
2018-04-23T22:10:30.587Z,5.20
2018-04-23T22:13:03.180Z,5.30
2018-04-23T22:15:35.811Z,5.50
2018-04-23T22:18:08.480Z,5.10
2018-04-23T22:20:41.058Z,4.60
2018-04-23T22:23:13.651Z,4.60
2018-04-23T22:25:46.296Z,4.57
2018-04-23T22:28:18.891Z,4.40
2018-04-23T22:30:51.522Z,4.17
2018-04-23T22:33:24.927Z,3.73
2018-04-23T22:35:57.549Z,3.63
2018-04-23T22:38:30.134Z,3.50
2018-04-23T22:41:02.758Z,3.87
2018-04-23T22:43:35.355Z,3.63
2018-04-23T22:46:07.985Z,3.67
2018-04-23T22:48:41.352Z,3.80
2018-04-23T22:51:13.972Z,3.63
2018-04-23T22:53:47.338Z,3.63
2018-04-23T22:56:19.980Z,4.10
2018-04-23T22:58:52.577Z,4.30
2018-04-23T23:01:25.196Z,3.93
2018-04-23T23:03:57.807Z,3.80
2018-04-23T23:06:30.425Z,3.50
2018-04-23T23:09:03.024Z,3.60
2018-04-23T23:11:36.402Z,3.40
2018-04-23T23:14:09.004Z,3.23
2018-04-23T23:16:41.640Z,3.57
2018-04-23T23:19:14.235Z,3.50
2018-04-23T23:21:46.871Z,4.23
2018-04-23T23:24:19.483Z,3.40
2018-04-23T23:26:52.091Z,3.77
2018-04-23T23:29:25.455Z,3.40
2018-04-23T23:31:58.094Z,3.50
2018-04-23T23:34:30.694Z,3.80
2018-04-23T23:37:03.310Z,3.80
2018-04-23T23:39:35.920Z,3.57
2018-04-23T23:42:08.548Z,3.60
2018-04-23T23:44:41.172Z,3.60
2018-04-23T23:47:13.817Z,3.70
2018-04-23T23:49:46.414Z,3.70
2018-04-23T23:52:19.031Z,3.70
2018-04-23T23:54:51.626Z,3.83
2018-04-23T23:57:24.277Z,3.90
2018-04-23T23:59:56.868Z,4.20
